createdAt,value
2019-05-21T00:02:31.961Z,12.07
2019-05-21T00:05:36.346Z,10.20
2019-05-21T00:08:40.784Z,10.73
2019-05-21T00:11:45.167Z,11.33
2019-05-21T00:14:49.587Z,11.70
2019-05-21T00:17:53.907Z,11.73
2019-05-21T00:20:58.316Z,13.03
2019-05-21T00:24:02.678Z,11.30
2019-05-21T00:27:07.091Z,12.00
2019-05-21T00:30:47.099Z,12.30
2019-05-21T00:34:35.421Z,12.40
2019-05-21T00:38:09.327Z,11.07
2019-05-21T00:41:49.652Z,11.93
2019-05-21T00:44:53.915Z,12.60
2019-05-21T00:47:58.329Z,12.73
2019-05-21T00:51:02.671Z,11.93
2019-05-21T00:54:07.085Z,12.13
2019-05-21T00:57:11.892Z,11.80
2019-05-21T01:00:16.805Z,11.37
2019-05-21T01:03:21.668Z,11.97
2019-05-21T01:06:26.053Z,11.43
2019-05-21T01:09:30.418Z,11.60
2019-05-21T01:12:34.802Z,10.83
2019-05-21T01:15:38.992Z,11.83
2019-05-21T01:18:43.306Z,11.37
2019-05-21T01:21:47.675Z,10.90
2019-05-21T01:24:52.047Z,11.87
2019-05-21T01:27:56.300Z,11.97
2019-05-21T01:31:00.616Z,11.27
2019-05-21T01:34:04.961Z,12.00
2019-05-21T01:37:09.343Z,10.60
2019-05-21T01:40:13.752Z,11.13
2019-05-21T01:43:18.142Z,10.63
2019-05-21T01:46:22.408Z,10.83
2019-05-21T01:49:26.676Z,10.77
2019-05-21T01:52:31.024Z,10.73
2019-05-21T01:55:35.555Z,10.17
2019-05-21T01:58:39.912Z,11.40
2019-05-21T02:01:44.251Z,10.53
2019-05-21T02:04:48.700Z,10.30
2019-05-21T02:07:53.068Z,11.10
2019-05-21T02:10:57.319Z,9.47
2019-05-21T02:14:01.643Z,10.50
2019-05-21T02:17:05.902Z,10.83
2019-05-21T02:20:10.439Z,9.33
2019-05-21T02:23:14.809Z,10.73
2019-05-21T02:26:19.218Z,10.60
2019-05-21T02:29:23.562Z,10.50
2019-05-21T02:32:27.972Z,10.47
2019-05-21T02:35:32.270Z,10.30
2019-05-21T02:38:36.635Z,9.70
2019-05-21T02:41:41.018Z,10.60
2019-05-21T02:44:45.455Z,10.70
2019-05-21T02:47:49.736Z,10.57
2019-05-21T02:50:54.116Z,9.77
2019-05-21T02:53:58.553Z,11.80
2019-05-21T02:57:02.884Z,10.67
2019-05-21T03:00:16.823Z,11.37
2019-05-21T03:03:23.259Z,11.17
2019-05-21T03:06:27.557Z,11.07
2019-05-21T03:09:31.957Z,10.93
2019-05-21T03:12:36.309Z,10.77
2019-05-21T03:15:40.738Z,10.80
2019-05-21T03:18:45.098Z,11.67
2019-05-21T03:21:49.469Z,11.10
2019-05-21T03:24:53.872Z,10.37
2019-05-21T03:27:58.386Z,10.43
2019-05-21T03:31:02.794Z,10.33
2019-05-21T03:34:07.244Z,11.60
2019-05-21T03:37:11.528Z,9.87
2019-05-21T03:40:16.399Z,10.00
2019-05-21T03:43:20.600Z,10.70
2019-05-21T03:46:24.943Z,10.23
2019-05-21T03:49:29.225Z,10.70
2019-05-21T03:52:33.926Z,10.57
2019-05-21T03:55:38.524Z,11.07
2019-05-21T03:58:42.942Z,10.13
2019-05-21T04:01:47.318Z,10.50
2019-05-21T04:04:51.710Z,10.77
2019-05-21T04:07:56.024Z,10.37
2019-05-21T04:11:00.448Z,11.07
2019-05-21T04:14:13.267Z,10.13
2019-05-21T04:17:36.632Z,11.60
2019-05-21T04:20:40.979Z,11.30
2019-05-21T04:23:45.428Z,10.50
2019-05-21T04:26:49.826Z,11.03
2019-05-21T04:29:54.162Z,10.20
2019-05-21T04:32:58.511Z,11.07
2019-05-21T04:36:02.960Z,10.33
2019-05-21T04:39:08.253Z,10.70
2019-05-21T04:42:12.651Z,10.90
2019-05-21T04:45:17.459Z,12.33
2019-05-21T04:48:21.891Z,11.50
2019-05-21T04:51:26.278Z,11.80
2019-05-21T04:54:30.692Z,11.30
2019-05-21T04:57:37.468Z,11.20
2019-05-21T05:00:41.380Z,11.30
2019-05-21T05:03:45.696Z,12.63
2019-05-21T05:06:50.104Z,11.67
2019-05-21T05:09:54.381Z,11.73
2019-05-21T05:12:58.781Z,12.27
2019-05-21T05:16:04.297Z,13.43
2019-05-21T05:19:08.900Z,12.03
2019-05-21T05:22:13.218Z,12.00
2019-05-21T05:25:17.749Z,12.50
2019-05-21T05:28:22.263Z,13.00
2019-05-21T05:31:26.635Z,14.23
2019-05-21T05:34:30.896Z,13.57
2019-05-21T05:37:44.027Z,15.17
2019-05-21T05:40:41.180Z,13.70
2019-05-21T05:43:45.584Z,13.77
2019-05-21T05:46:49.927Z,14.60
2019-05-21T05:49:55.922Z,13.77
2019-05-21T05:53:00.927Z,14.40
2019-05-21T05:56:05.344Z,13.27
2019-05-21T05:59:13.873Z,14.23
2019-05-21T06:02:16.746Z,13.20
2019-05-21T06:05:21.220Z,12.90
2019-05-21T06:08:26.295Z,13.30
2019-05-21T06:11:30.656Z,12.73
2019-05-21T06:14:35.460Z,12.80
2019-05-21T06:17:39.860Z,12.73
2019-05-21T06:20:44.853Z,12.20
2019-05-21T06:23:49.405Z,12.03
2019-05-21T06:26:54.125Z,12.67
2019-05-21T06:29:58.999Z,12.63
2019-05-21T06:33:03.865Z,11.47
2019-05-21T06:36:08.532Z,10.97
2019-05-21T06:39:12.992Z,11.80
2019-05-21T06:42:17.676Z,10.97
2019-05-21T06:45:24.105Z,11.70
2019-05-21T06:48:28.566Z,10.87
2019-05-21T06:51:33.203Z,10.80
2019-05-21T06:54:38.308Z,12.07
2019-05-21T06:57:42.741Z,11.30
2019-05-21T07:00:47.158Z,10.93
2019-05-21T07:03:51.692Z,10.50
2019-05-21T07:06:56.107Z,11.60
2019-05-21T07:10:00.580Z,9.17
2019-05-21T07:13:04.995Z,8.33
2019-05-21T07:16:09.324Z,8.00
2019-05-21T07:19:13.823Z,7.43
2019-05-21T07:22:18.495Z,7.23
2019-05-21T07:25:22.963Z,6.70
2019-05-21T07:28:27.724Z,6.20
2019-05-21T07:31:32.094Z,6.90
2019-05-21T07:34:36.748Z,7.67
2019-05-21T07:37:42.496Z,7.10
2019-05-21T07:40:46.917Z,6.27
2019-05-21T07:43:51.409Z,6.33
2019-05-21T07:46:55.800Z,6.33
2019-05-21T07:50:00.406Z,5.73
2019-05-21T07:53:04.990Z,6.00
2019-05-21T07:56:09.400Z,5.77
2019-05-21T07:59:13.816Z,4.87
2019-05-21T08:02:18.235Z,4.83
2019-05-21T08:05:26.588Z,5.07
2019-05-21T08:08:31.125Z,5.00
2019-05-21T08:11:35.575Z,3.17
2019-05-21T08:14:39.965Z,3.40
2019-05-21T08:17:44.497Z,3.20
2019-05-21T08:20:48.801Z,2.90
2019-05-21T08:23:53.491Z,2.97
2019-05-21T08:26:57.821Z,3.07
2019-05-21T08:30:02.264Z,3.17
2019-05-21T08:33:06.659Z,3.03
2019-05-21T08:36:11.144Z,2.40
2019-05-21T08:39:27.678Z,2.50
2019-05-21T08:42:21.701Z,2.63
2019-05-21T08:45:26.096Z,2.57
2019-05-21T08:48:30.447Z,2.47
2019-05-21T08:51:36.092Z,2.70
2019-05-21T08:54:56.185Z,2.13
2019-05-21T08:58:07.078Z,2.33
2019-05-21T09:01:05.036Z,2.60
2019-05-21T09:04:09.447Z,2.40
2019-05-21T09:07:14.064Z,2.00
2019-05-21T09:10:18.609Z,1.60
2019-05-21T09:13:22.930Z,1.93
2019-05-21T09:16:27.296Z,1.73
2019-05-21T09:19:36.188Z,1.50
2019-05-21T09:22:37.793Z,1.57
2019-05-21T09:25:43.677Z,1.53
2019-05-21T09:28:48.394Z,1.90
2019-05-21T09:31:53.118Z,1.37
2019-05-21T09:34:57.870Z,1.63
2019-05-21T09:38:02.345Z,1.50
2019-05-21T09:41:06.743Z,1.20
2019-05-21T09:44:11.135Z,1.50
2019-05-21T09:47:15.442Z,1.23
2019-05-21T09:50:22.383Z,1.30
2019-05-21T09:53:26.729Z,1.70
2019-05-21T09:56:34.654Z,1.63
2019-05-21T09:59:55.837Z,1.90
2019-05-21T10:03:01.141Z,1.63
2019-05-21T10:06:06.017Z,1.40
2019-05-21T10:09:13.890Z,1.30
2019-05-21T10:12:18.228Z,1.43
2019-05-21T10:15:22.561Z,1.77
2019-05-21T10:18:27.043Z,1.17
2019-05-21T10:21:31.442Z,1.60
2019-05-21T10:24:35.811Z,1.50
2019-05-21T10:27:40.148Z,1.13
2019-05-21T10:30:44.517Z,1.30
2019-05-21T10:33:48.933Z,1.70
2019-05-21T10:36:53.419Z,1.67
2019-05-21T10:39:57.851Z,1.77
2019-05-21T10:43:02.230Z,1.77
2019-05-21T10:46:06.723Z,1.80
2019-05-21T10:49:11.099Z,2.43
2019-05-21T10:52:15.780Z,2.13
2019-05-21T10:55:20.146Z,2.00
2019-05-21T10:58:24.729Z,2.43
2019-05-21T11:01:36.839Z,2.07
2019-05-21T11:05:15.374Z,2.43
2019-05-21T11:08:23.882Z,2.27
2019-05-21T11:11:26.217Z,2.40
2019-05-21T11:14:30.588Z,2.17
2019-05-21T11:17:48.299Z,2.40
2019-05-21T11:20:41.438Z,2.33
2019-05-21T11:23:45.899Z,2.40
2019-05-21T11:26:50.325Z,2.03
2019-05-21T11:29:54.892Z,2.43
2019-05-21T11:33:01.086Z,2.70
2019-05-21T11:36:05.914Z,2.53
2019-05-21T11:39:10.754Z,2.33
2019-05-21T11:42:15.139Z,2.60
2019-05-21T11:45:31.712Z,2.90
2019-05-21T11:48:27.108Z,2.57
2019-05-21T11:51:31.511Z,2.67
2019-05-21T11:54:35.890Z,2.83
2019-05-21T11:57:40.246Z,3.13
2019-05-21T12:00:44.672Z,2.70
2019-05-21T12:03:49.008Z,3.00
2019-05-21T12:06:53.439Z,2.80
2019-05-21T12:09:58.668Z,3.10
2019-05-21T12:13:04.069Z,3.33
2019-05-21T12:16:08.535Z,3.50
2019-05-21T12:19:12.928Z,3.70
2019-05-21T12:22:17.435Z,3.40
2019-05-21T12:25:22.063Z,4.03
2019-05-21T12:28:26.584Z,3.87
2019-05-21T12:31:31.226Z,3.53
2019-05-21T12:34:38.859Z,3.87
2019-05-21T12:37:45.573Z,3.20
2019-05-21T12:40:50.143Z,3.37
2019-05-21T12:43:54.915Z,3.23
2019-05-21T12:46:59.299Z,3.40
2019-05-21T12:50:04.698Z,3.30
2019-05-21T12:53:09.678Z,3.33
2019-05-21T12:56:14.788Z,3.17
2019-05-21T12:59:19.370Z,3.10
2019-05-21T13:02:23.769Z,3.80
2019-05-21T13:05:28.564Z,3.93
2019-05-21T13:08:33.141Z,3.17
2019-05-21T13:11:37.814Z,3.70
2019-05-21T13:14:42.650Z,3.23
2019-05-21T13:17:47.283Z,3.10
2019-05-21T13:20:52.042Z,3.07
2019-05-21T13:23:56.733Z,2.60
2019-05-21T13:27:01.428Z,2.93
2019-05-21T13:30:07.091Z,2.80
2019-05-21T13:33:19.760Z,3.07
2019-05-21T13:36:24.256Z,2.87
2019-05-21T13:39:28.760Z,3.17
2019-05-21T13:42:33.168Z,3.20
2019-05-21T13:45:38.596Z,3.43
2019-05-21T13:48:46.407Z,3.30
2019-05-21T13:51:49.092Z,3.27
2019-05-21T13:54:53.574Z,3.20
2019-05-21T13:57:58.106Z,3.60
2019-05-21T14:01:02.554Z,3.20
2019-05-21T14:04:07.244Z,3.60
2019-05-21T14:07:11.656Z,3.47
2019-05-21T14:10:19.766Z,4.10
2019-05-21T14:13:22.980Z,4.00
2019-05-21T14:16:27.900Z,3.83
2019-05-21T14:19:33.823Z,3.77
2019-05-21T14:22:38.755Z,3.80
2019-05-21T14:25:43.421Z,3.87
2019-05-21T14:28:48.813Z,4.00
2019-05-21T14:31:53.604Z,4.77
2019-05-21T14:35:13.779Z,4.43
2019-05-21T14:38:20.378Z,4.63
2019-05-21T14:41:24.874Z,4.43
2019-05-21T14:44:30.248Z,4.20
2019-05-21T14:47:36.607Z,4.10
2019-05-21T14:50:41.350Z,4.30
2019-05-21T14:53:47.328Z,3.97
2019-05-21T14:56:52.874Z,4.37
2019-05-21T14:59:57.304Z,4.07
2019-05-21T15:03:02.947Z,4.80
2019-05-21T15:06:07.496Z,5.17
2019-05-21T15:09:12.317Z,4.30
2019-05-21T15:12:17.015Z,4.60
2019-05-21T15:15:21.847Z,4.47
2019-05-21T15:18:26.318Z,4.63
2019-05-21T15:21:35.392Z,4.97
2019-05-21T15:24:39.888Z,4.70
2019-05-21T15:27:44.527Z,5.23
2019-05-21T15:30:49.628Z,6.20
2019-05-21T15:33:54.116Z,5.87
2019-05-21T15:37:00.389Z,5.57
2019-05-21T15:40:06.502Z,5.80
2019-05-21T15:43:11.267Z,6.10
2019-05-21T15:46:16.222Z,6.97
2019-05-21T15:49:35.629Z,6.83
2019-05-21T15:52:30.903Z,6.37
2019-05-21T15:55:35.713Z,6.83
2019-05-21T15:58:43.557Z,7.80
2019-05-21T16:01:48.529Z,8.27
2019-05-21T16:04:53.992Z,8.63
2019-05-21T16:08:02.339Z,8.27
2019-05-21T16:11:07.844Z,8.40
2019-05-21T16:14:12.615Z,9.00
2019-05-21T16:17:18.787Z,8.37
2019-05-21T16:20:23.662Z,8.37
2019-05-21T16:23:28.402Z,9.43
2019-05-21T16:26:32.971Z,9.17
2019-05-21T16:29:37.622Z,9.60
2019-05-21T16:32:42.296Z,9.37
2019-05-21T16:35:47.853Z,9.37
2019-05-21T16:38:52.784Z,9.23
2019-05-21T16:41:57.427Z,9.70
2019-05-21T16:45:05.385Z,10.07
2019-05-21T16:48:12.852Z,9.60
2019-05-21T16:51:17.462Z,9.47
2019-05-21T16:54:22.421Z,9.83
2019-05-21T16:57:27.908Z,10.40
2019-05-21T17:00:34.545Z,11.00
2019-05-21T17:03:42.736Z,11.33
2019-05-21T17:06:48.077Z,10.97
2019-05-21T17:09:53.025Z,11.90
2019-05-21T17:13:01.481Z,11.30
2019-05-21T17:16:06.685Z,12.03
2019-05-21T17:19:12.979Z,11.57
2019-05-21T17:22:18.242Z,11.93
2019-05-21T17:25:23.692Z,13.20
2019-05-21T17:28:29.506Z,12.93
2019-05-21T17:31:35.164Z,12.43
2019-05-21T17:34:43.847Z,13.33
2019-05-21T17:37:49.299Z,13.37
2019-05-21T17:40:54.777Z,12.50
2019-05-21T17:44:00.080Z,12.23
2019-05-21T17:47:05.074Z,11.87
2019-05-21T17:50:10.735Z,10.60
2019-05-21T17:53:16.187Z,10.23
2019-05-21T17:56:21.339Z,10.00
2019-05-21T17:59:26.478Z,9.47
2019-05-21T18:02:32.125Z,9.53
2019-05-21T18:05:37.350Z,8.53
2019-05-21T18:08:43.159Z,7.10
2019-05-21T18:11:48.841Z,7.07
2019-05-21T18:14:54.756Z,7.13
2019-05-21T18:18:00.773Z,8.83
2019-05-21T18:21:07.475Z,8.00
2019-05-21T18:24:12.798Z,9.37
2019-05-21T18:27:17.788Z,25.67
2019-05-21T18:30:23.974Z,17.97
2019-05-21T18:33:36.717Z,11.77
2019-05-21T18:36:41.702Z,19.20
2019-05-21T18:39:47.010Z,13.63
2019-05-21T18:42:52.652Z,10.20
2019-05-21T18:45:57.322Z,7.23
2019-05-21T18:49:04.795Z,6.50
2019-05-21T18:52:09.555Z,7.20
2019-05-21T18:55:15.172Z,6.97
2019-05-21T18:58:20.904Z,6.20
2019-05-21T19:01:27.707Z,7.23
2019-05-21T19:04:32.344Z,7.20
2019-05-21T19:07:37.219Z,6.90
2019-05-21T19:10:45.178Z,8.70
2019-05-21T19:13:51.064Z,12.30
2019-05-21T19:16:56.620Z,8.70
2019-05-21T19:20:03.446Z,7.07
2019-05-21T19:23:08.252Z,5.40
2019-05-21T19:26:13.360Z,5.10
2019-05-21T19:29:18.467Z,5.10
2019-05-21T19:32:23.661Z,4.80
2019-05-21T19:35:28.496Z,4.47
2019-05-21T19:38:36.663Z,4.80
2019-05-21T19:41:39.849Z,4.90
2019-05-21T19:44:45.297Z,4.87
2019-05-21T19:47:50.799Z,4.33
2019-05-21T19:50:55.951Z,5.20
2019-05-21T19:54:03.515Z,5.27
2019-05-21T19:57:10.201Z,5.60
2019-05-21T20:00:18.759Z,6.33
2019-05-21T20:03:24.091Z,6.67
2019-05-21T20:06:29.037Z,6.70
2019-05-21T20:09:35.466Z,6.87
2019-05-21T20:12:40.287Z,6.73
2019-05-21T20:15:45.740Z,6.07
2019-05-21T20:18:50.540Z,5.50
2019-05-21T20:21:55.631Z,5.40
2019-05-21T20:25:02.150Z,6.03
2019-05-21T20:28:10.690Z,7.57
2019-05-21T20:31:15.101Z,7.10
2019-05-21T20:34:22.153Z,6.60
2019-05-21T20:37:29.509Z,5.63
2019-05-21T20:40:36.035Z,5.87
2019-05-21T20:43:41.058Z,5.70
2019-05-21T20:46:45.750Z,6.10
2019-05-21T20:49:51.035Z,6.00
2019-05-21T20:52:56.652Z,5.70
2019-05-21T20:56:04.829Z,5.73
2019-05-21T20:59:09.337Z,4.83
2019-05-21T21:02:14.880Z,4.40
2019-05-21T21:05:19.860Z,4.23
2019-05-21T21:08:27.507Z,3.03
2019-05-21T21:11:31.054Z,3.33
2019-05-21T21:14:36.781Z,2.40
2019-05-21T21:17:41.508Z,3.10
2019-05-21T21:20:45.891Z,2.70
2019-05-21T21:23:52.960Z,3.00
2019-05-21T21:26:59.155Z,2.50
2019-05-21T21:30:05.067Z,2.80
2019-05-21T21:33:11.462Z,2.90
2019-05-21T21:36:16.232Z,2.50
2019-05-21T21:39:22.427Z,2.77
2019-05-21T21:42:26.839Z,3.23
2019-05-21T21:45:32.234Z,2.87
2019-05-21T21:48:37.391Z,3.00
2019-05-21T21:51:42.081Z,3.30
2019-05-21T21:54:46.903Z,3.30
2019-05-21T21:57:51.538Z,3.50
2019-05-21T22:01:34.977Z,3.30
2019-05-21T22:04:40.076Z,3.20
2019-05-21T22:07:44.633Z,2.87
2019-05-21T22:10:49.360Z,3.10
2019-05-21T22:13:54.907Z,2.47
2019-05-21T22:17:00.735Z,2.93
2019-05-21T22:20:07.554Z,2.97
2019-05-21T22:23:12.820Z,2.60
2019-05-21T22:26:17.218Z,2.40
2019-05-21T22:29:21.959Z,2.73
2019-05-21T22:32:27.109Z,2.40
2019-05-21T22:35:34.815Z,2.33
2019-05-21T22:38:40.018Z,2.40
2019-05-21T22:41:44.829Z,2.43
2019-05-21T22:45:06.373Z,2.40
2019-05-21T22:47:56.744Z,2.30
2019-05-21T22:51:01.197Z,2.40
2019-05-21T22:54:07.288Z,2.50
2019-05-21T22:57:11.634Z,2.20
2019-05-21T23:00:16.512Z,2.33
2019-05-21T23:03:21.453Z,2.70
2019-05-21T23:06:26.078Z,2.53
2019-05-21T23:09:30.400Z,2.83
2019-05-21T23:12:35.984Z,2.40
2019-05-21T23:15:40.800Z,2.30
2019-05-21T23:18:45.998Z,2.17
2019-05-21T23:21:51.877Z,2.50
2019-05-21T23:24:56.586Z,2.40
2019-05-21T23:28:01.739Z,2.30
2019-05-21T23:31:08.319Z,2.17
2019-05-21T23:34:16.051Z,1.97
2019-05-21T23:37:21.740Z,1.90
2019-05-21T23:40:28.272Z,1.73
2019-05-21T23:43:33.913Z,1.97
2019-05-21T23:46:39.586Z,1.80
2019-05-21T23:49:43.958Z,1.70
2019-05-21T23:52:48.848Z,2.17
2019-05-21T23:55:53.272Z,2.07
2019-05-21T23:58:57.680Z,2.37
